Terminal Aerodrome Forecast
Issued by NWS

Home | Current Version | Previous Version | Graphics & Text | Print | Product List | Glossary On
Versions: 1 2 3 4 5 6 7 8 9 10 11 12 13 14
000
FTUS43 KBIS 190800 AAA
TAFJMS
TAF AMD
KJMS 190809Z 1908/2006 17011KT P6SM OVC120
      TEMPO 1908/1910 21015KT
     FM191000 29014KT P6SM SCT120
     FM191300 27017G25KT P6SM SCT250
     FM191600 27020G28KT P6SM SKC
     FM200000 28011KT P6SM SKC
     FM200300 27004KT P6SM SKC=

USA.gov is the U.S. government's official web portal to all federal, state and local government web resources and services.